createdAt,value
2019-05-26T00:00:25.060Z,16.94
2019-05-26T00:02:53.985Z,16.99
2019-05-26T00:05:22.585Z,16.63
2019-05-26T00:07:51.218Z,16.78
2019-05-26T00:10:19.923Z,16.96
2019-05-26T00:12:48.526Z,17.02
2019-05-26T00:15:17.535Z,16.83
2019-05-26T00:17:46.131Z,16.83
2019-05-26T00:20:14.861Z,16.82
2019-05-26T00:22:43.512Z,16.68
2019-05-26T00:25:12.316Z,16.66
2019-05-26T00:27:41.092Z,16.98
2019-05-26T00:30:10.094Z,16.99
2019-05-26T00:32:38.689Z,16.94
2019-05-26T00:35:08.024Z,17.16
2019-05-26T00:37:48.319Z,16.70
2019-05-26T00:40:08.748Z,16.84
2019-05-26T00:42:37.560Z,16.94
2019-05-26T00:45:06.770Z,16.65
2019-05-26T00:47:35.476Z,16.71
2019-05-26T00:50:05.041Z,16.74
2019-05-26T00:52:33.638Z,16.72
2019-05-26T00:55:02.570Z,16.59
2019-05-26T00:57:31.272Z,16.35
2019-05-26T00:59:59.857Z,16.51
2019-05-26T01:02:28.456Z,16.64
2019-05-26T01:04:57.138Z,16.49
2019-05-26T01:07:25.724Z,16.57
2019-05-26T01:09:54.316Z,16.37
2019-05-26T01:12:22.905Z,16.38
2019-05-26T01:14:51.508Z,16.57
2019-05-26T01:17:20.123Z,16.61
2019-05-26T01:19:48.818Z,16.42
2019-05-26T01:22:17.423Z,16.59
2019-05-26T01:24:45.930Z,16.38
2019-05-26T01:27:14.517Z,16.32
2019-05-26T01:29:43.019Z,16.26
2019-05-26T01:32:11.583Z,16.58
2019-05-26T01:34:40.161Z,16.37
2019-05-26T01:37:09.067Z,16.26
2019-05-26T01:39:37.755Z,16.27
2019-05-26T01:42:06.361Z,16.03
2019-05-26T01:44:34.947Z,15.78
2019-05-26T01:47:03.550Z,15.83
2019-05-26T01:49:32.054Z,16.03
2019-05-26T01:52:00.561Z,15.91
2019-05-26T01:54:29.058Z,16.03
2019-05-26T01:56:57.665Z,15.71
2019-05-26T01:59:26.269Z,15.83
2019-05-26T02:01:58.548Z,16.11
2019-05-26T02:04:25.181Z,15.75
2019-05-26T02:06:53.665Z,15.94
2019-05-26T02:09:22.046Z,15.68
2019-05-26T02:11:50.548Z,15.80
2019-05-26T02:14:19.057Z,15.93
2019-05-26T02:16:47.626Z,15.82
2019-05-26T02:19:16.330Z,15.70
2019-05-26T02:21:44.738Z,15.57
2019-05-26T02:24:13.232Z,15.40
2019-05-26T02:26:41.746Z,15.43
2019-05-26T02:29:10.270Z,15.48
2019-05-26T02:31:38.776Z,15.47
2019-05-26T02:34:07.258Z,15.43
2019-05-26T02:36:35.853Z,15.58
2019-05-26T02:39:06.898Z,15.36
2019-05-26T02:41:35.601Z,15.24
2019-05-26T02:44:04.380Z,15.00
2019-05-26T02:46:33.077Z,15.27
2019-05-26T02:49:01.772Z,15.17
2019-05-26T02:51:30.384Z,15.44
2019-05-26T02:53:58.870Z,15.48
2019-05-26T02:56:27.534Z,15.15
2019-05-26T02:58:56.013Z,15.03
2019-05-26T03:01:25.435Z,15.24
2019-05-26T03:03:54.213Z,15.29
2019-05-26T03:06:23.833Z,15.25
2019-05-26T03:08:55.139Z,15.05
2019-05-26T03:11:26.744Z,15.01
2019-05-26T03:13:59.074Z,14.91
2019-05-26T03:16:30.194Z,15.07
2019-05-26T03:19:00.643Z,14.94
2019-05-26T03:21:32.154Z,15.21
2019-05-26T03:24:03.755Z,15.43
2019-05-26T03:26:32.499Z,15.16
2019-05-26T03:29:01.077Z,15.11
2019-05-26T03:31:29.670Z,15.09
2019-05-26T03:33:58.285Z,15.29
2019-05-26T03:36:26.875Z,15.29
2019-05-26T03:38:55.371Z,15.16
2019-05-26T03:41:23.862Z,15.13
2019-05-26T03:43:52.372Z,15.07
2019-05-26T03:46:20.998Z,15.15
2019-05-26T03:48:50.107Z,15.15
2019-05-26T03:51:19.057Z,15.27
2019-05-26T03:53:47.611Z,15.34
2019-05-26T03:56:16.092Z,15.38
2019-05-26T03:58:44.593Z,15.29
2019-05-26T04:01:13.095Z,15.40
2019-05-26T04:03:41.686Z,15.27
2019-05-26T04:06:10.387Z,15.48
2019-05-26T04:08:38.992Z,15.43
2019-05-26T04:11:07.505Z,15.46
2019-05-26T04:13:36.028Z,15.35
2019-05-26T04:16:04.868Z,15.41
2019-05-26T04:18:33.458Z,15.52
2019-05-26T04:21:01.870Z,15.57
2019-05-26T04:23:30.616Z,15.62
2019-05-26T04:25:59.239Z,15.73
2019-05-26T04:28:27.735Z,15.73
2019-05-26T04:30:56.303Z,15.75
2019-05-26T04:33:24.934Z,15.87
2019-05-26T04:35:53.536Z,15.97
2019-05-26T04:38:22.026Z,15.92
2019-05-26T04:40:50.675Z,16.19
2019-05-26T04:43:19.180Z,16.22
2019-05-26T04:45:47.671Z,16.07
2019-05-26T04:48:16.374Z,16.16
2019-05-26T04:50:45.112Z,16.27
2019-05-26T04:53:13.819Z,16.75
2019-05-26T04:55:42.442Z,16.98
2019-05-26T04:58:10.845Z,17.02
2019-05-26T05:00:39.339Z,17.41
2019-05-26T05:03:07.917Z,17.40
2019-05-26T05:05:36.324Z,17.78
2019-05-26T05:08:04.954Z,17.89
2019-05-26T05:10:42.313Z,17.82
2019-05-26T05:13:04.055Z,18.14
2019-05-26T05:15:32.555Z,18.09
2019-05-26T05:18:01.055Z,17.70
2019-05-26T05:20:29.553Z,18.08
2019-05-26T05:22:58.161Z,18.40
2019-05-26T05:25:26.843Z,18.47
2019-05-26T05:27:55.436Z,18.63
2019-05-26T05:30:24.135Z,18.72
2019-05-26T05:32:52.749Z,18.83
2019-05-26T05:35:21.300Z,18.72
2019-05-26T05:37:50.214Z,18.88
2019-05-26T05:40:18.982Z,18.89
2019-05-26T05:42:47.568Z,19.01
2019-05-26T05:45:17.270Z,18.91
2019-05-26T05:47:45.773Z,19.02
2019-05-26T05:50:14.870Z,19.05
2019-05-26T05:52:43.574Z,19.22
2019-05-26T05:55:12.282Z,19.17
2019-05-26T05:57:40.858Z,18.96
2019-05-26T06:00:12.662Z,19.21
2019-05-26T06:02:41.163Z,19.42
2019-05-26T06:05:09.751Z,19.25
2019-05-26T06:07:38.390Z,19.26
2019-05-26T06:10:08.038Z,19.49
2019-05-26T06:12:36.628Z,19.40
2019-05-26T06:15:07.556Z,19.44
2019-05-26T06:17:36.055Z,19.69
2019-05-26T06:20:05.804Z,19.90
2019-05-26T06:22:34.391Z,19.93
2019-05-26T06:25:03.923Z,20.12
2019-05-26T06:27:32.729Z,20.03
2019-05-26T06:30:01.333Z,19.85
2019-05-26T06:32:29.914Z,19.91
2019-05-26T06:34:58.315Z,20.13
2019-05-26T06:37:26.905Z,20.30
2019-05-26T06:39:55.610Z,20.39
2019-05-26T06:42:24.088Z,20.46
2019-05-26T06:44:54.063Z,20.29
2019-05-26T06:47:22.811Z,20.43
2019-05-26T06:49:51.376Z,20.51
2019-05-26T06:52:20.022Z,20.43
2019-05-26T06:54:49.144Z,20.65
2019-05-26T06:57:17.636Z,20.82
2019-05-26T06:59:46.125Z,20.98
2019-05-26T07:02:14.631Z,20.92
2019-05-26T07:04:43.129Z,20.97
2019-05-26T07:07:11.708Z,21.18
2019-05-26T07:09:40.227Z,21.25
2019-05-26T07:12:08.805Z,21.28
2019-05-26T07:14:37.203Z,21.31
2019-05-26T07:17:05.700Z,21.36
2019-05-26T07:19:34.190Z,21.32
2019-05-26T07:22:02.674Z,21.45
2019-05-26T07:24:31.193Z,21.57
2019-05-26T07:26:59.767Z,21.72
2019-05-26T07:29:28.344Z,21.74
2019-05-26T07:31:56.849Z,21.96
2019-05-26T07:34:25.444Z,22.03
2019-05-26T07:36:54.538Z,22.14
2019-05-26T07:39:23.249Z,22.01
2019-05-26T07:42:08.667Z,22.19
2019-05-26T07:44:22.059Z,22.15
2019-05-26T07:46:56.638Z,22.09
2019-05-26T07:49:25.184Z,22.14
2019-05-26T07:51:53.765Z,22.12
2019-05-26T07:54:25.597Z,22.22
2019-05-26T07:56:52.660Z,22.29
2019-05-26T07:59:21.201Z,22.39
2019-05-26T08:01:49.703Z,22.47
2019-05-26T08:04:18.291Z,22.49
2019-05-26T08:06:46.801Z,22.64
2019-05-26T08:09:15.315Z,22.74
2019-05-26T08:11:43.900Z,22.70
2019-05-26T08:14:12.492Z,22.81
2019-05-26T08:16:40.979Z,22.87
2019-05-26T08:19:09.492Z,22.93
2019-05-26T08:21:38.094Z,22.95
2019-05-26T08:24:06.529Z,22.90
2019-05-26T08:26:35.026Z,23.09
2019-05-26T08:29:03.538Z,23.08
2019-05-26T08:31:31.925Z,23.20
2019-05-26T08:34:00.555Z,23.35
2019-05-26T08:36:29.079Z,23.44
2019-05-26T08:38:57.661Z,23.49
2019-05-26T08:41:26.149Z,23.37
2019-05-26T08:43:54.651Z,23.41
2019-05-26T08:46:23.186Z,23.44
2019-05-26T08:48:51.677Z,23.36
2019-05-26T08:51:20.273Z,23.55
2019-05-26T08:53:48.688Z,23.59
2019-05-26T08:56:17.303Z,23.76
2019-05-26T08:58:45.816Z,23.69
2019-05-26T09:01:14.302Z,23.81
2019-05-26T09:03:42.928Z,23.81
2019-05-26T09:06:11.544Z,23.86
2019-05-26T09:08:40.032Z,23.97
2019-05-26T09:11:08.531Z,23.96
2019-05-26T09:13:37.330Z,24.05
2019-05-26T09:16:06.035Z,24.25
2019-05-26T09:18:34.624Z,24.30
2019-05-26T09:21:03.331Z,24.28
2019-05-26T09:23:31.925Z,24.35
2019-05-26T09:26:00.420Z,24.35
2019-05-26T09:28:29.033Z,24.44
2019-05-26T09:30:57.633Z,24.44
2019-05-26T09:33:26.145Z,24.54
2019-05-26T09:35:54.743Z,24.75
2019-05-26T09:38:23.241Z,24.77
2019-05-26T09:40:51.739Z,24.78
2019-05-26T09:43:20.357Z,24.70
2019-05-26T09:45:48.841Z,24.65
2019-05-26T09:48:17.439Z,24.70
2019-05-26T09:50:46.031Z,24.82
2019-05-26T09:53:14.630Z,24.93
2019-05-26T09:55:43.132Z,24.86
2019-05-26T09:58:11.762Z,24.95
2019-05-26T10:00:40.250Z,25.01
2019-05-26T10:03:08.863Z,25.01
2019-05-26T10:05:37.436Z,24.98
2019-05-26T10:08:05.862Z,25.05
2019-05-26T10:10:34.354Z,25.09
2019-05-26T10:13:02.993Z,25.11
2019-05-26T10:15:31.635Z,25.21
2019-05-26T10:18:00.256Z,25.07
2019-05-26T10:20:28.856Z,25.31
2019-05-26T10:22:57.542Z,25.33
2019-05-26T10:25:26.159Z,25.35
2019-05-26T10:27:54.640Z,25.27
2019-05-26T10:30:23.250Z,25.33
2019-05-26T10:32:51.857Z,25.31
2019-05-26T10:35:20.362Z,25.30
2019-05-26T10:37:48.972Z,25.50
2019-05-26T10:40:17.569Z,25.50
2019-05-26T10:42:46.075Z,25.46
2019-05-26T10:45:15.371Z,25.34
2019-05-26T10:47:43.956Z,25.41
2019-05-26T10:50:12.965Z,25.46
2019-05-26T10:52:41.476Z,25.61
2019-05-26T10:55:10.476Z,25.53
2019-05-26T10:57:39.104Z,25.62
2019-05-26T11:00:08.446Z,25.73
2019-05-26T11:02:36.950Z,25.76
2019-05-26T11:05:06.591Z,25.64
2019-05-26T11:07:35.189Z,25.56
2019-05-26T11:10:04.797Z,25.54
2019-05-26T11:12:33.301Z,25.61
2019-05-26T11:15:01.897Z,25.60
2019-05-26T11:17:30.496Z,25.79
2019-05-26T11:19:58.981Z,25.70
2019-05-26T11:22:27.484Z,25.62
2019-05-26T11:24:55.977Z,25.66
2019-05-26T11:27:24.583Z,25.65
2019-05-26T11:29:53.202Z,25.82
2019-05-26T11:32:21.733Z,25.93
2019-05-26T11:35:01.121Z,25.84
2019-05-26T11:37:20.797Z,26.09
2019-05-26T11:39:49.285Z,26.72
2019-05-26T11:42:17.878Z,26.77
2019-05-26T11:44:46.611Z,26.78
2019-05-26T11:47:15.210Z,26.69
2019-05-26T11:49:43.794Z,26.73
2019-05-26T11:52:12.297Z,26.41
2019-05-26T11:54:40.887Z,26.35
2019-05-26T11:57:09.362Z,26.25
2019-05-26T11:59:37.877Z,26.21
2019-05-26T12:02:06.496Z,26.31
2019-05-26T12:04:35.097Z,26.38
2019-05-26T12:07:04.615Z,26.14
2019-05-26T12:09:33.572Z,26.21
2019-05-26T12:12:02.253Z,26.15
2019-05-26T12:14:34.981Z,26.13
2019-05-26T12:17:01.379Z,26.14
2019-05-26T12:19:29.948Z,26.07
2019-05-26T12:21:58.550Z,26.12
2019-05-26T12:24:27.177Z,26.13
2019-05-26T12:26:55.776Z,25.96
2019-05-26T12:29:24.163Z,25.98
2019-05-26T12:31:52.957Z,25.99
2019-05-26T12:34:21.535Z,26.12
2019-05-26T12:36:50.106Z,26.05
2019-05-26T12:39:18.613Z,26.13
2019-05-26T12:41:47.332Z,26.30
2019-05-26T12:44:15.798Z,26.28
2019-05-26T12:46:44.298Z,26.16
2019-05-26T12:49:12.915Z,26.21
2019-05-26T12:51:41.505Z,26.12
2019-05-26T12:54:10.022Z,26.13
2019-05-26T12:56:38.522Z,26.21
2019-05-26T12:59:07.307Z,26.20
2019-05-26T13:01:35.838Z,26.32
2019-05-26T13:04:04.568Z,26.23
2019-05-26T13:06:33.279Z,26.38
2019-05-26T13:09:01.878Z,26.36
2019-05-26T13:11:30.479Z,26.42
2019-05-26T13:13:59.097Z,26.41
2019-05-26T13:16:27.716Z,26.12
2019-05-26T13:18:56.421Z,26.11
2019-05-26T13:21:25.003Z,26.21
2019-05-26T13:23:53.403Z,26.22
2019-05-26T13:26:21.996Z,26.24
2019-05-26T13:28:50.611Z,26.33
2019-05-26T13:31:19.113Z,26.34
2019-05-26T13:33:47.746Z,26.20
2019-05-26T13:36:16.419Z,26.18
2019-05-26T13:38:44.908Z,26.34
2019-05-26T13:41:13.408Z,26.35
2019-05-26T13:43:42.000Z,26.21
2019-05-26T13:46:10.488Z,26.38
2019-05-26T13:48:39.015Z,26.44
2019-05-26T13:51:07.603Z,26.46
2019-05-26T13:53:36.159Z,26.57
2019-05-26T13:56:04.709Z,26.55
2019-05-26T13:58:33.241Z,26.55
2019-05-26T14:01:01.723Z,26.60
2019-05-26T14:03:30.318Z,26.48
2019-05-26T14:05:58.898Z,26.46
2019-05-26T14:08:27.520Z,26.35
2019-05-26T14:10:56.220Z,26.29
2019-05-26T14:13:24.821Z,26.36
2019-05-26T14:15:54.765Z,26.37
2019-05-26T14:18:24.668Z,26.37
2019-05-26T14:20:53.380Z,26.42
2019-05-26T14:23:21.865Z,26.33
2019-05-26T14:25:50.430Z,26.37
2019-05-26T14:28:19.023Z,26.19
2019-05-26T14:30:47.430Z,26.38
2019-05-26T14:33:15.905Z,26.42
2019-05-26T14:35:44.516Z,26.43
2019-05-26T14:38:13.113Z,26.27
2019-05-26T14:40:41.717Z,26.40
2019-05-26T14:43:10.473Z,26.46
2019-05-26T14:45:52.442Z,26.38
2019-05-26T14:48:09.330Z,26.43
2019-05-26T14:50:40.692Z,26.28
2019-05-26T14:53:08.293Z,26.23
2019-05-26T14:55:36.905Z,26.26
2019-05-26T14:58:14.980Z,26.18
2019-05-26T15:00:36.089Z,26.14
2019-05-26T15:03:04.687Z,26.15
2019-05-26T15:05:33.289Z,26.15
2019-05-26T15:08:01.887Z,26.34
2019-05-26T15:10:30.587Z,26.21
2019-05-26T15:12:59.094Z,26.15
2019-05-26T15:15:27.585Z,26.20
2019-05-26T15:17:56.218Z,26.22
2019-05-26T15:20:24.727Z,26.09
2019-05-26T15:22:53.211Z,26.13
2019-05-26T15:25:21.809Z,26.22
2019-05-26T15:27:50.324Z,26.04
2019-05-26T15:30:19.013Z,25.99
2019-05-26T15:32:47.713Z,26.14
2019-05-26T15:35:16.302Z,26.08
2019-05-26T15:37:44.812Z,26.05
2019-05-26T15:40:13.872Z,26.14
2019-05-26T15:42:42.393Z,26.10
2019-05-26T15:45:11.004Z,26.09
2019-05-26T15:47:39.611Z,25.98
2019-05-26T15:50:08.924Z,25.88
2019-05-26T15:52:37.510Z,25.95
2019-05-26T15:55:07.054Z,25.95
2019-05-26T15:57:35.669Z,25.98
2019-05-26T16:00:05.244Z,25.86
2019-05-26T16:02:33.880Z,26.02
2019-05-26T16:05:02.411Z,26.14
2019-05-26T16:07:31.144Z,25.96
2019-05-26T16:09:59.758Z,25.81
2019-05-26T16:12:28.385Z,25.94
2019-05-26T16:14:56.998Z,25.88
2019-05-26T16:17:25.478Z,25.94
2019-05-26T16:19:54.018Z,26.03
2019-05-26T16:22:22.593Z,26.04
2019-05-26T16:24:51.204Z,25.58
2019-05-26T16:27:20.093Z,25.70
2019-05-26T16:29:48.513Z,25.57
2019-05-26T16:32:18.967Z,25.43
2019-05-26T16:34:47.592Z,25.66
2019-05-26T16:37:16.097Z,25.68
2019-05-26T16:39:44.677Z,25.63
2019-05-26T16:42:13.168Z,25.60
2019-05-26T16:44:41.747Z,25.68
2019-05-26T16:47:10.235Z,25.56
2019-05-26T16:49:38.779Z,25.64
2019-05-26T16:52:07.290Z,25.61
2019-05-26T16:54:35.882Z,25.65
2019-05-26T16:57:04.644Z,25.53
2019-05-26T16:59:33.154Z,25.38
2019-05-26T17:02:01.759Z,25.39
2019-05-26T17:04:30.479Z,25.25
2019-05-26T17:06:58.889Z,25.38
2019-05-26T17:09:27.588Z,25.10
2019-05-26T17:11:56.108Z,25.20
2019-05-26T17:14:24.749Z,25.22
2019-05-26T17:16:53.242Z,25.14
2019-05-26T17:19:21.838Z,25.37
2019-05-26T17:21:50.352Z,25.24
2019-05-26T17:24:18.872Z,25.21
2019-05-26T17:26:47.380Z,25.09
2019-05-26T17:29:15.997Z,24.98
2019-05-26T17:31:44.615Z,24.89
2019-05-26T17:34:13.098Z,25.07
2019-05-26T17:36:41.605Z,25.11
2019-05-26T17:39:10.079Z,24.82
2019-05-26T17:41:38.686Z,24.58
2019-05-26T17:44:07.322Z,24.74
2019-05-26T17:46:35.799Z,24.68
2019-05-26T17:49:04.396Z,24.46
2019-05-26T17:51:33.719Z,24.68
2019-05-26T17:54:02.337Z,24.35
2019-05-26T17:56:31.034Z,24.33
2019-05-26T17:58:59.539Z,24.50
2019-05-26T18:01:28.141Z,24.50
2019-05-26T18:03:56.734Z,24.53
2019-05-26T18:06:25.216Z,24.41
2019-05-26T18:08:53.716Z,24.57
2019-05-26T18:11:22.219Z,24.69
2019-05-26T18:13:50.848Z,24.38
2019-05-26T18:16:19.257Z,24.24
2019-05-26T18:18:47.870Z,24.14
2019-05-26T18:21:16.481Z,23.85
2019-05-26T18:23:44.974Z,23.82
2019-05-26T18:26:13.484Z,23.59
2019-05-26T18:28:42.217Z,23.43
2019-05-26T18:31:10.740Z,23.88
2019-05-26T18:33:39.251Z,23.56
2019-05-26T18:36:07.855Z,23.49
2019-05-26T18:38:36.345Z,23.91
2019-05-26T18:41:04.839Z,23.92
2019-05-26T18:43:33.468Z,23.72
2019-05-26T18:46:01.938Z,23.91
2019-05-26T18:48:30.544Z,23.60
2019-05-26T18:50:59.058Z,23.44
2019-05-26T18:53:29.825Z,23.26
2019-05-26T18:55:57.966Z,23.06
2019-05-26T18:58:26.473Z,23.46
2019-05-26T19:00:54.981Z,23.26
2019-05-26T19:03:23.646Z,23.17
2019-05-26T19:05:52.254Z,23.37
2019-05-26T19:08:20.869Z,23.06
2019-05-26T19:10:49.468Z,22.91
2019-05-26T19:13:18.074Z,22.80
2019-05-26T19:15:46.579Z,22.82
2019-05-26T19:18:19.739Z,22.77
2019-05-26T19:20:45.584Z,23.00
2019-05-26T19:23:14.190Z,22.95
2019-05-26T19:25:42.922Z,22.85
2019-05-26T19:28:11.542Z,23.11
2019-05-26T19:30:40.166Z,23.19
2019-05-26T19:33:08.782Z,22.84
2019-05-26T19:35:37.281Z,23.08
2019-05-26T19:38:05.870Z,23.25
2019-05-26T19:40:34.773Z,23.03
2019-05-26T19:43:03.474Z,22.82
2019-05-26T19:45:31.971Z,22.87
2019-05-26T19:48:00.628Z,22.45
2019-05-26T19:50:29.186Z,22.50
2019-05-26T19:52:57.690Z,23.02
2019-05-26T19:55:26.394Z,22.90
2019-05-26T19:57:54.874Z,23.10
2019-05-26T20:00:24.189Z,22.51
2019-05-26T20:02:52.581Z,22.88
2019-05-26T20:05:21.174Z,23.14
2019-05-26T20:07:49.777Z,22.97
2019-05-26T20:10:18.466Z,22.76
2019-05-26T20:12:47.154Z,22.85
2019-05-26T20:15:16.350Z,22.63
2019-05-26T20:17:44.952Z,22.85
2019-05-26T20:20:14.088Z,22.85
2019-05-26T20:22:42.689Z,22.64
2019-05-26T20:25:11.486Z,22.60
2019-05-26T20:27:40.074Z,22.66
2019-05-26T20:30:08.690Z,22.47
2019-05-26T20:32:37.268Z,22.24
2019-05-26T20:35:06.161Z,22.28
2019-05-26T20:37:34.690Z,22.41
2019-05-26T20:40:04.048Z,22.43
2019-05-26T20:42:32.542Z,22.38
2019-05-26T20:45:01.129Z,22.08
2019-05-26T20:47:29.721Z,22.22
2019-05-26T20:49:58.227Z,22.14
2019-05-26T20:52:26.725Z,22.26
2019-05-26T20:54:55.232Z,22.34
2019-05-26T20:57:23.943Z,21.81
2019-05-26T20:59:52.531Z,22.16
2019-05-26T21:02:21.040Z,22.34
2019-05-26T21:04:49.639Z,22.10
2019-05-26T21:07:18.232Z,21.65
2019-05-26T21:09:46.816Z,22.11
2019-05-26T21:12:15.338Z,21.98
2019-05-26T21:14:43.830Z,22.01
2019-05-26T21:17:12.326Z,21.63
2019-05-26T21:19:40.926Z,22.00
2019-05-26T21:22:09.625Z,22.00
2019-05-26T21:24:38.238Z,22.03
2019-05-26T21:27:06.820Z,22.00
2019-05-26T21:29:36.276Z,21.96
2019-05-26T21:32:04.891Z,21.94
2019-05-26T21:34:33.493Z,21.68
2019-05-26T21:37:02.072Z,21.57
2019-05-26T21:39:30.564Z,21.83
2019-05-26T21:41:59.148Z,21.46
2019-05-26T21:44:27.735Z,21.59
2019-05-26T21:46:56.245Z,21.21
2019-05-26T21:49:24.939Z,21.63
2019-05-26T21:51:53.638Z,21.15
2019-05-26T21:54:22.230Z,21.54
2019-05-26T21:56:50.872Z,21.48
2019-05-26T21:59:19.422Z,20.91
2019-05-26T22:01:47.822Z,21.04
2019-05-26T22:04:16.409Z,21.01
2019-05-26T22:06:45.015Z,21.18
2019-05-26T22:09:13.500Z,21.13
2019-05-26T22:11:42.088Z,21.25
2019-05-26T22:14:10.669Z,21.05
2019-05-26T22:16:39.164Z,21.00
2019-05-26T22:19:07.651Z,20.77
2019-05-26T22:21:36.216Z,20.94
2019-05-26T22:24:04.817Z,20.97
2019-05-26T22:26:33.304Z,21.06
2019-05-26T22:29:01.786Z,20.93
2019-05-26T22:31:30.282Z,20.45
2019-05-26T22:33:58.804Z,20.52
2019-05-26T22:36:27.365Z,20.71
2019-05-26T22:38:55.746Z,20.65
2019-05-26T22:41:24.336Z,20.82
2019-05-26T22:43:52.929Z,20.14
2019-05-26T22:46:21.547Z,20.25
2019-05-26T22:48:50.147Z,20.03
2019-05-26T22:51:18.640Z,20.32
2019-05-26T22:53:47.138Z,20.68
2019-05-26T22:56:15.646Z,20.74
2019-05-26T22:58:44.239Z,20.57
2019-05-26T23:01:13.147Z,20.16
2019-05-26T23:03:41.645Z,20.45
2019-05-26T23:06:10.282Z,20.55
2019-05-26T23:08:38.872Z,20.38
2019-05-26T23:11:07.360Z,20.32
2019-05-26T23:13:36.007Z,20.61
2019-05-26T23:16:04.608Z,20.77
2019-05-26T23:18:33.095Z,20.37
2019-05-26T23:21:01.702Z,19.88
2019-05-26T23:23:30.184Z,20.52
2019-05-26T23:25:58.663Z,20.13
2019-05-26T23:28:27.361Z,20.25
2019-05-26T23:30:55.850Z,19.66
2019-05-26T23:33:24.424Z,19.73
2019-05-26T23:35:52.810Z,19.97
2019-05-26T23:38:21.397Z,19.77
2019-05-26T23:40:49.885Z,19.13
2019-05-26T23:43:18.389Z,19.71
2019-05-26T23:45:46.984Z,19.70
2019-05-26T23:48:15.397Z,20.23
2019-05-26T23:50:43.998Z,20.19
2019-05-26T23:53:12.589Z,20.40
2019-05-26T23:55:41.197Z,19.89
2019-05-26T23:58:09.688Z,19.94
